Moscow, Texas
Current Conditions -  °F | °C
As of 11:53 AM on Monday 22 Dec 2014 (Local Time) from KLFK Reporting Station
Broken Clouds Broken Clouds  
Wind Chill: 69°   Ceiling: 2400
Heat Index: 69°   Visibility: 10mi
Dew Point: 57°   Wind: 18mph
Humidity: 65%   Direction: 220°SW
Pressure: 29.65"   Gusts: NA
Location:  30.91°N, 94.83°W
Report Text: KLFK 221753Z AUTO 22016KT 10SM BKN024 BKN032 21/14 A2965 RMK AO2 SLP038 T02060139 10206 20133 58023
Loading
Personal Weather Stations






























Interactive Weather Map New forecast layout! Learn more

10-Day Weather Forecast

Advertisements
Track Severe Weather on mobile